createdAt,value
2022-11-15T00:02:50.382Z,95.16
2022-11-15T00:08:12.527Z,94.86
2022-11-15T00:13:34.832Z,94.61
2022-11-15T00:18:58.336Z,93.62
2022-11-15T00:24:20.094Z,92.20
2022-11-15T00:29:44.190Z,91.49
2022-11-15T00:35:06.240Z,90.91
2022-11-15T00:40:28.198Z,91.33
2022-11-15T00:45:49.966Z,90.89
2022-11-15T00:51:11.699Z,90.43
2022-11-15T00:56:33.407Z,89.31
2022-11-15T01:01:55.102Z,89.38
2022-11-15T01:07:16.924Z,89.42
2022-11-15T01:12:38.846Z,89.12
2022-11-15T01:18:00.650Z,89.44
2022-11-15T01:23:22.356Z,90.99
2022-11-15T01:28:44.048Z,91.61
2022-11-15T01:34:05.817Z,92.50
2022-11-15T01:39:27.704Z,93.17
2022-11-15T01:44:51.618Z,93.66
2022-11-15T01:50:18.410Z,93.90
2022-11-15T01:55:40.210Z,93.71
2022-11-15T02:01:02.056Z,93.65
2022-11-15T02:06:23.917Z,93.62
2022-11-15T02:11:47.330Z,94.07
2022-11-15T02:17:51.541Z,94.30
2022-11-15T02:24:04.785Z,94.38
2022-11-15T02:29:42.392Z,93.84
2022-11-15T02:35:21.196Z,92.95
2022-11-15T02:40:53.049Z,92.95
2022-11-15T02:46:48.929Z,92.66
2022-11-15T02:52:15.986Z,91.92
2022-11-15T02:57:53.561Z,93.32
2022-11-15T03:03:46.734Z,93.71
2022-11-15T03:09:15.095Z,93.00
2022-11-15T03:14:46.421Z,93.51
2022-11-15T03:20:10.761Z,94.13
2022-11-15T03:25:36.671Z,94.46
2022-11-15T03:31:02.374Z,94.26
2022-11-15T03:36:25.884Z,94.42
2022-11-15T03:42:09.220Z,95.34
2022-11-15T03:47:43.152Z,92.46
2022-11-15T03:53:04.988Z,93.51
2022-11-15T03:58:26.694Z,94.97
2022-11-15T04:03:48.382Z,94.25
2022-11-15T04:09:10.107Z,95.50
2022-11-15T04:14:31.813Z,95.29
2022-11-15T04:20:12.147Z,95.34
2022-11-15T04:25:33.936Z,95.41
2022-11-15T04:30:55.742Z,95.38
2022-11-15T04:36:36.192Z,96.14
2022-11-15T04:41:57.889Z,96.03
2022-11-15T04:47:19.803Z,95.93
2022-11-15T04:52:43.449Z,95.55
2022-11-15T04:58:05.243Z,95.21
2022-11-15T05:03:45.401Z,94.20
2022-11-15T05:09:07.313Z,95.58
2022-11-15T05:14:30.181Z,95.99
2022-11-15T05:19:52.896Z,95.53
2022-11-15T05:25:14.661Z,95.96
2022-11-15T05:30:36.357Z,95.87
2022-11-15T05:36:05.615Z,96.14
2022-11-15T05:41:33.289Z,94.80
2022-11-15T05:46:56.784Z,94.94
2022-11-15T05:52:23.381Z,93.15
2022-11-15T05:57:45.888Z,94.32
2022-11-15T06:03:07.632Z,96.38
2022-11-15T06:08:29.328Z,96.93
2022-11-15T06:13:51.039Z,98.50
2022-11-15T06:19:12.793Z,98.94
2022-11-15T06:24:34.454Z,98.57
2022-11-15T06:29:56.136Z,97.48
2022-11-15T06:35:18.277Z,97.48
2022-11-15T06:40:40.462Z,97.06
2022-11-15T06:46:03.961Z,96.74
2022-11-15T06:51:25.659Z,96.48
2022-11-15T06:56:47.362Z,96.14
2022-11-15T07:02:15.214Z,96.08
2022-11-15T07:07:37.110Z,95.66
2022-11-15T07:12:58.950Z,94.71
2022-11-15T07:18:20.776Z,95.63
2022-11-15T07:23:42.544Z,94.36
2022-11-15T07:29:04.237Z,93.99
2022-11-15T07:34:25.950Z,92.85
2022-11-15T07:39:47.652Z,91.65
2022-11-15T07:45:09.571Z,91.73
2022-11-15T07:50:32.036Z,91.22
2022-11-15T07:55:54.457Z,91.66
2022-11-15T08:01:16.295Z,91.99
2022-11-15T08:06:38.266Z,92.99
2022-11-15T08:11:59.960Z,92.13
2022-11-15T08:17:21.739Z,89.57
2022-11-15T08:22:43.420Z,92.42
2022-11-15T08:28:08.017Z,93.41
2022-11-15T08:33:30.999Z,94.02
2022-11-15T08:38:53.002Z,89.71
2022-11-15T08:44:14.745Z,89.65
2022-11-15T08:49:36.429Z,90.26
2022-11-15T08:54:58.629Z,89.75
2022-11-15T09:00:20.987Z,89.88
2022-11-15T09:05:42.869Z,90.16
2022-11-15T09:11:09.337Z,88.97
2022-11-15T09:16:32.065Z,87.45
2022-11-15T09:21:53.896Z,87.42
2022-11-15T09:27:15.672Z,85.18
2022-11-15T09:32:39.339Z,85.02
2022-11-15T09:38:02.018Z,84.61
2022-11-15T09:43:45.305Z,82.61
2022-11-15T09:49:09.401Z,82.90
2022-11-15T09:54:55.888Z,82.48
2022-11-15T10:06:06.952Z,79.64
2022-11-15T10:11:38.153Z,79.76
2022-11-15T10:17:10.395Z,80.78
2022-11-15T10:22:52.233Z,81.74
2022-11-15T10:28:22.293Z,80.37
2022-11-15T10:33:44.024Z,80.25
2022-11-15T10:39:05.712Z,80.09
2022-11-15T10:44:29.404Z,80.58
2022-11-15T10:49:57.519Z,78.71
2022-11-15T10:55:26.670Z,78.47
2022-11-15T11:00:48.497Z,79.43
2022-11-15T11:06:16.825Z,79.88
2022-11-15T11:11:52.775Z,80.52
2022-11-15T11:17:24.256Z,80.64
2022-11-15T11:23:04.217Z,81.83
2022-11-15T11:28:54.843Z,82.77
2022-11-15T11:34:32.250Z,82.15
2022-11-15T11:40:10.726Z,81.96
2022-11-15T11:45:40.404Z,81.77
2022-11-15T11:51:16.577Z,81.41
2022-11-15T11:56:42.592Z,82.51
2022-11-15T12:02:34.862Z,84.00
2022-11-15T12:08:05.484Z,83.14
2022-11-15T12:13:29.972Z,84.00
2022-11-15T12:18:54.857Z,83.04
2022-11-15T12:24:23.785Z,83.61
2022-11-15T12:29:50.694Z,84.22
2022-11-15T12:35:26.223Z,83.82
2022-11-15T12:41:13.858Z,83.17
2022-11-15T12:46:41.549Z,85.07
2022-11-15T12:52:03.181Z,85.47
2022-11-15T12:57:32.477Z,85.70
2022-11-15T13:03:18.402Z,86.11
2022-11-15T13:08:48.495Z,86.62
2022-11-15T13:14:40.724Z,87.80
2022-11-15T13:20:19.470Z,86.37
2022-11-15T13:26:06.075Z,83.31
2022-11-15T13:31:38.695Z,81.75
2022-11-15T13:37:00.624Z,82.26
2022-11-15T13:42:22.395Z,84.42
2022-11-15T13:47:44.234Z,84.66
2022-11-15T13:53:06.688Z,85.58
2022-11-15T13:58:28.391Z,84.52
2022-11-15T14:03:52.034Z,83.94
2022-11-15T14:09:30.754Z,85.69
2022-11-15T14:14:52.933Z,87.17
2022-11-15T14:20:27.306Z,89.33
2022-11-15T14:25:57.997Z,90.87
2022-11-15T14:31:20.680Z,93.03
2022-11-15T14:36:42.471Z,92.18
2022-11-15T14:42:06.480Z,92.88
2022-11-15T14:47:28.207Z,92.92
2022-11-15T14:52:50.157Z,93.91
2022-11-15T14:58:11.960Z,93.26
2022-11-15T15:03:33.643Z,91.26
2022-11-15T15:08:55.359Z,89.93
2022-11-15T15:14:17.295Z,89.78
2022-11-15T15:19:39.045Z,89.79
2022-11-15T15:25:00.749Z,89.63
2022-11-15T15:30:23.912Z,89.20
2022-11-15T15:35:45.614Z,91.05
2022-11-15T15:41:11.384Z,92.14
2022-11-15T15:46:34.597Z,90.99
2022-11-15T15:51:56.326Z,91.37
2022-11-15T15:57:18.131Z,91.22
2022-11-15T16:02:41.022Z,90.98
2022-11-15T16:08:02.776Z,90.91
2022-11-15T16:13:24.470Z,90.88
2022-11-15T16:18:46.149Z,90.82
2022-11-15T16:24:07.921Z,91.00
2022-11-15T16:29:29.655Z,90.24
2022-11-15T16:34:51.375Z,89.88
2022-11-15T16:40:28.923Z,87.50
2022-11-15T16:45:51.494Z,89.00
2022-11-15T16:51:13.345Z,89.34
2022-11-15T16:56:35.057Z,88.10
2022-11-15T17:01:56.819Z,87.59
2022-11-15T17:07:18.617Z,87.34
2022-11-15T17:12:40.356Z,87.83
2022-11-15T17:18:02.048Z,87.14
2022-11-15T17:23:23.724Z,87.03
2022-11-15T17:28:45.433Z,87.25
2022-11-15T17:34:07.517Z,87.31
2022-11-15T17:39:29.235Z,86.68
2022-11-15T17:44:50.974Z,87.05
2022-11-15T17:50:12.841Z,87.73
2022-11-15T17:55:35.624Z,88.16
2022-11-15T18:01:06.540Z,88.13
2022-11-15T18:06:30.563Z,88.35
2022-11-15T18:11:54.368Z,88.58
2022-11-15T18:17:18.091Z,88.51
2022-11-15T18:22:39.875Z,89.26
2022-11-15T18:28:01.635Z,89.09
2022-11-15T18:33:23.407Z,89.16
2022-11-15T18:38:45.418Z,89.32
2022-11-15T18:44:07.312Z,89.67
2022-11-15T18:49:29.072Z,89.72
2022-11-15T18:54:50.805Z,90.82
2022-11-15T19:00:13.260Z,91.70
2022-11-15T19:05:35.358Z,93.22
2022-11-15T19:10:57.067Z,93.95
2022-11-15T19:16:18.793Z,94.56
2022-11-15T19:21:40.785Z,94.99
2022-11-15T19:27:02.510Z,96.54
2022-11-15T19:32:24.228Z,96.41
2022-11-15T19:37:45.948Z,95.33
2022-11-15T19:43:07.680Z,96.06
2022-11-15T19:48:31.573Z,95.60
2022-11-15T19:53:55.524Z,96.15
2022-11-15T19:59:17.399Z,96.54
2022-11-15T20:04:39.132Z,95.24
2022-11-15T20:10:00.989Z,94.78
2022-11-15T20:15:23.039Z,92.48
2022-11-15T20:20:45.386Z,91.91
2022-11-15T20:26:08.560Z,92.35
2022-11-15T20:31:31.477Z,93.54
2022-11-15T20:36:54.285Z,94.14
2022-11-15T20:42:16.016Z,96.01
2022-11-15T20:47:37.853Z,96.16
2022-11-15T20:52:59.634Z,96.05
2022-11-15T20:58:21.360Z,97.11
2022-11-15T21:03:43.419Z,97.31
2022-11-15T21:09:23.544Z,97.60
2022-11-15T21:14:46.477Z,97.90
2022-11-15T21:20:08.613Z,98.14
2022-11-15T21:25:30.400Z,97.33
2022-11-15T21:30:54.040Z,96.78
2022-11-15T21:36:16.053Z,96.71
2022-11-15T21:41:37.910Z,97.11
2022-11-15T21:47:00.198Z,97.86
2022-11-15T21:52:21.924Z,97.51
2022-11-15T21:57:43.649Z,98.05
2022-11-15T22:03:05.510Z,98.03
2022-11-15T22:08:27.628Z,97.71
2022-11-15T22:13:49.483Z,98.62
2022-11-15T22:19:11.202Z,99.68
2022-11-15T22:24:32.937Z,100.00
2022-11-15T22:29:54.632Z,100.00
2022-11-15T22:35:16.738Z,99.71
2022-11-15T22:40:39.161Z,100.00
2022-11-15T22:46:02.007Z,100.00
2022-11-15T22:51:23.834Z,100.00
2022-11-15T22:56:46.690Z,100.00
2022-11-15T23:02:08.414Z,100.00
2022-11-15T23:07:30.465Z,100.00
2022-11-15T23:13:10.653Z,100.00
2022-11-15T23:18:37.466Z,100.00
2022-11-15T23:23:59.347Z,100.00
2022-11-15T23:29:23.458Z,100.00
2022-11-15T23:34:45.973Z,100.00
2022-11-15T23:40:08.501Z,100.00
2022-11-15T23:45:30.189Z,100.00
2022-11-15T23:50:51.887Z,100.00
2022-11-15T23:56:15.294Z,100.00
